Terminal Aerodrome Forecast
Issued by NWS

Home | Current Version | Previous Version | Text Only | Print | Product List | Glossary On
Versions: 1 2 3 4 5 6 7 8 9 10 11 12 13 14 15 16
000
FTUS43 KMPX 282339
TAFRNH
TAF
KRNH 282339Z 2900/2924 01006KT P6SM BKN040
     FM290900 02005KT P6SM SCT030 BKN040
      TEMPO 2909/2912 5SM BR
     FM291500 04007KT P6SM SCT040=

USA.gov is the U.S. government's official web portal to all federal, state and local government web resources and services.